sensor_id;sensor_type;location;lat;lon;timestamp;P1;durP1;ratioP1;P2;durP2;ratioP2
48805;SDS011;34625;47.176;27.548;2023-04-09T00:01:03;45.38;;;31.30;;
48805;SDS011;34625;47.176;27.548;2023-04-09T00:03:30;47.00;;;31.00;;
48805;SDS011;34625;47.176;27.548;2023-04-09T00:05:57;45.05;;;30.55;;
48805;SDS011;34625;47.176;27.548;2023-04-09T00:08:23;44.67;;;29.10;;
48805;SDS011;34625;47.176;27.548;2023-04-09T00:10:49;46.35;;;31.02;;
48805;SDS011;34625;47.176;27.548;2023-04-09T00:13:18;47.05;;;31.75;;
48805;SDS011;34625;47.176;27.548;2023-04-09T00:15:45;46.45;;;31.17;;
48805;SDS011;34625;47.176;27.548;2023-04-09T00:18:12;46.72;;;31.58;;
48805;SDS011;34625;47.176;27.548;2023-04-09T00:20:38;49.65;;;31.50;;
48805;SDS011;34625;47.176;27.548;2023-04-09T00:23:04;44.78;;;30.10;;
48805;SDS011;34625;47.176;27.548;2023-04-09T00:25:30;43.70;;;30.15;;
48805;SDS011;34625;47.176;27.548;2023-04-09T00:27:57;45.58;;;30.30;;
48805;SDS011;34625;47.176;27.548;2023-04-09T00:30:23;45.83;;;29.98;;
48805;SDS011;34625;47.176;27.548;2023-04-09T00:32:49;44.90;;;29.92;;
48805;SDS011;34625;47.176;27.548;2023-04-09T00:35:16;47.90;;;29.77;;
48805;SDS011;34625;47.176;27.548;2023-04-09T00:37:42;50.63;;;31.60;;
48805;SDS011;34625;47.176;27.548;2023-04-09T00:40:08;48.60;;;29.88;;
48805;SDS011;34625;47.176;27.548;2023-04-09T00:42:35;44.88;;;31.60;;
48805;SDS011;34625;47.176;27.548;2023-04-09T00:45:02;46.47;;;33.42;;
48805;SDS011;34625;47.176;27.548;2023-04-09T00:47:30;52.58;;;34.15;;
48805;SDS011;34625;47.176;27.548;2023-04-09T00:49:56;49.42;;;33.55;;
48805;SDS011;34625;47.176;27.548;2023-04-09T00:52:23;47.90;;;31.55;;
48805;SDS011;34625;47.176;27.548;2023-04-09T00:54:49;48.53;;;32.25;;
48805;SDS011;34625;47.176;27.548;2023-04-09T00:57:16;48.97;;;32.42;;
48805;SDS011;34625;47.176;27.548;2023-04-09T00:59:43;45.13;;;31.85;;
48805;SDS011;34625;47.176;27.548;2023-04-09T01:02:09;47.95;;;32.40;;
48805;SDS011;34625;47.176;27.548;2023-04-09T01:04:37;46.95;;;32.25;;
48805;SDS011;34625;47.176;27.548;2023-04-09T01:15:38;54.75;;;33.95;;
48805;SDS011;34625;47.176;27.548;2023-04-09T01:21:13;50.17;;;33.28;;
48805;SDS011;34625;47.176;27.548;2023-04-09T01:23:44;48.63;;;32.35;;
48805;SDS011;34625;47.176;27.548;2023-04-09T01:26:37;50.97;;;32.65;;
48805;SDS011;34625;47.176;27.548;2023-04-09T01:29:32;44.58;;;30.42;;
48805;SDS011;34625;47.176;27.548;2023-04-09T01:32:01;47.92;;;32.22;;
48805;SDS011;34625;47.176;27.548;2023-04-09T01:34:29;42.15;;;30.02;;
48805;SDS011;34625;47.176;27.548;2023-04-09T01:36:57;46.60;;;31.60;;
48805;SDS011;34625;47.176;27.548;2023-04-09T01:39:25;44.70;;;31.38;;
48805;SDS011;34625;47.176;27.548;2023-04-09T01:41:51;53.22;;;32.78;;
48805;SDS011;34625;47.176;27.548;2023-04-09T01:44:19;49.22;;;31.80;;
48805;SDS011;34625;47.176;27.548;2023-04-09T01:46:46;44.65;;;30.48;;
48805;SDS011;34625;47.176;27.548;2023-04-09T01:49:12;50.08;;;30.95;;
48805;SDS011;34625;47.176;27.548;2023-04-09T01:51:40;43.05;;;30.30;;
48805;SDS011;34625;47.176;27.548;2023-04-09T01:54:06;49.50;;;31.63;;
48805;SDS011;34625;47.176;27.548;2023-04-09T01:56:43;48.38;;;31.80;;
48805;SDS011;34625;47.176;27.548;2023-04-09T01:59:10;45.28;;;32.08;;
48805;SDS011;34625;47.176;27.548;2023-04-09T02:01:38;48.97;;;32.10;;
48805;SDS011;34625;47.176;27.548;2023-04-09T02:04:20;46.58;;;32.15;;
48805;SDS011;34625;47.176;27.548;2023-04-09T02:09:22;45.60;;;30.42;;
48805;SDS011;34625;47.176;27.548;2023-04-09T02:11:51;45.28;;;30.77;;
48805;SDS011;34625;47.176;27.548;2023-04-09T02:14:21;47.45;;;33.25;;
48805;SDS011;34625;47.176;27.548;2023-04-09T02:16:51;50.05;;;34.28;;
48805;SDS011;34625;47.176;27.548;2023-04-09T02:19:17;47.78;;;31.90;;
48805;SDS011;34625;47.176;27.548;2023-04-09T02:21:43;51.72;;;33.63;;
48805;SDS011;34625;47.176;27.548;2023-04-09T02:24:10;47.70;;;31.77;;
48805;SDS011;34625;47.176;27.548;2023-04-09T02:26:36;49.00;;;32.63;;
48805;SDS011;34625;47.176;27.548;2023-04-09T02:29:02;47.22;;;31.77;;
48805;SDS011;34625;47.176;27.548;2023-04-09T02:31:28;50.72;;;32.28;;
48805;SDS011;34625;47.176;27.548;2023-04-09T02:33:54;49.35;;;32.00;;
48805;SDS011;34625;47.176;27.548;2023-04-09T02:36:20;47.97;;;31.85;;
48805;SDS011;34625;47.176;27.548;2023-04-09T02:38:46;45.45;;;31.70;;
48805;SDS011;34625;47.176;27.548;2023-04-09T02:41:12;49.67;;;32.22;;
48805;SDS011;34625;47.176;27.548;2023-04-09T02:43:38;48.25;;;31.88;;
48805;SDS011;34625;47.176;27.548;2023-04-09T02:46:05;42.80;;;30.50;;
48805;SDS011;34625;47.176;27.548;2023-04-09T02:48:33;45.65;;;32.13;;
48805;SDS011;34625;47.176;27.548;2023-04-09T02:50:59;51.00;;;31.83;;
48805;SDS011;34625;47.176;27.548;2023-04-09T02:53:25;47.13;;;31.20;;
48805;SDS011;34625;47.176;27.548;2023-04-09T02:55:51;52.85;;;32.20;;
48805;SDS011;34625;47.176;27.548;2023-04-09T02:58:17;44.38;;;29.70;;
48805;SDS011;34625;47.176;27.548;2023-04-09T03:00:43;48.75;;;31.83;;
48805;SDS011;34625;47.176;27.548;2023-04-09T03:03:09;47.30;;;31.30;;
48805;SDS011;34625;47.176;27.548;2023-04-09T03:05:35;45.88;;;30.05;;
48805;SDS011;34625;47.176;27.548;2023-04-09T03:08:02;46.42;;;30.80;;
48805;SDS011;34625;47.176;27.548;2023-04-09T03:10:28;47.20;;;31.50;;
48805;SDS011;34625;47.176;27.548;2023-04-09T03:12:54;46.22;;;31.90;;
48805;SDS011;34625;47.176;27.548;2023-04-09T03:15:20;51.53;;;32.10;;
48805;SDS011;34625;47.176;27.548;2023-04-09T03:17:46;51.17;;;30.42;;
48805;SDS011;34625;47.176;27.548;2023-04-09T03:20:12;44.50;;;30.50;;
48805;SDS011;34625;47.176;27.548;2023-04-09T03:22:38;44.72;;;30.50;;
48805;SDS011;34625;47.176;27.548;2023-04-09T03:25:19;44.80;;;30.40;;
48805;SDS011;34625;47.176;27.548;2023-04-09T03:27:47;44.45;;;28.80;;
48805;SDS011;34625;47.176;27.548;2023-04-09T03:30:20;42.17;;;27.88;;
48805;SDS011;34625;47.176;27.548;2023-04-09T03:32:47;42.92;;;28.92;;
48805;SDS011;34625;47.176;27.548;2023-04-09T03:35:13;38.70;;;27.52;;
48805;SDS011;34625;47.176;27.548;2023-04-09T03:37:44;38.75;;;25.65;;
48805;SDS011;34625;47.176;27.548;2023-04-09T03:40:15;41.78;;;27.73;;
48805;SDS011;34625;47.176;27.548;2023-04-09T03:42:42;39.97;;;28.05;;
48805;SDS011;34625;47.176;27.548;2023-04-09T03:45:09;40.58;;;28.05;;
48805;SDS011;34625;47.176;27.548;2023-04-09T03:47:40;44.10;;;28.33;;
48805;SDS011;34625;47.176;27.548;2023-04-09T03:50:06;34.65;;;24.17;;
48805;SDS011;34625;47.176;27.548;2023-04-09T03:52:44;39.70;;;24.70;;
48805;SDS011;34625;47.176;27.548;2023-04-09T03:55:10;40.38;;;26.35;;
48805;SDS011;34625;47.176;27.548;2023-04-09T03:57:36;41.92;;;27.13;;
48805;SDS011;34625;47.176;27.548;2023-04-09T04:00:06;39.47;;;26.30;;
48805;SDS011;34625;47.176;27.548;2023-04-09T04:02:49;39.70;;;25.83;;
48805;SDS011;34625;47.176;27.548;2023-04-09T04:05:21;38.83;;;25.92;;
48805;SDS011;34625;47.176;27.548;2023-04-09T04:07:48;37.25;;;25.65;;
48805;SDS011;34625;47.176;27.548;2023-04-09T04:10:23;38.45;;;24.27;;
48805;SDS011;34625;47.176;27.548;2023-04-09T04:12:49;37.97;;;24.75;;
48805;SDS011;34625;47.176;27.548;2023-04-09T04:15:28;36.90;;;24.45;;
48805;SDS011;34625;47.176;27.548;2023-04-09T04:17:55;41.63;;;28.30;;
48805;SDS011;34625;47.176;27.548;2023-04-09T04:20:36;42.95;;;27.95;;
48805;SDS011;34625;47.176;27.548;2023-04-09T04:23:07;37.30;;;26.07;;
48805;SDS011;34625;47.176;27.548;2023-04-09T04:25:39;40.60;;;28.15;;
48805;SDS011;34625;47.176;27.548;2023-04-09T04:28:07;37.58;;;26.80;;
48805;SDS011;34625;47.176;27.548;2023-04-09T04:30:40;45.65;;;31.35;;
48805;SDS011;34625;47.176;27.548;2023-04-09T04:33:07;46.55;;;32.03;;
48805;SDS011;34625;47.176;27.548;2023-04-09T04:35:43;47.83;;;31.30;;
48805;SDS011;34625;47.176;27.548;2023-04-09T04:38:24;43.05;;;30.35;;
48805;SDS011;34625;47.176;27.548;2023-04-09T04:40:52;47.15;;;31.95;;
48805;SDS011;34625;47.176;27.548;2023-04-09T04:43:19;50.85;;;33.00;;
48805;SDS011;34625;47.176;27.548;2023-04-09T04:45:46;47.17;;;31.92;;
48805;SDS011;34625;47.176;27.548;2023-04-09T04:48:12;51.65;;;32.90;;
48805;SDS011;34625;47.176;27.548;2023-04-09T04:50:38;47.78;;;31.52;;
48805;SDS011;34625;47.176;27.548;2023-04-09T04:53:07;53.60;;;33.38;;
48805;SDS011;34625;47.176;27.548;2023-04-09T04:55:42;44.15;;;33.50;;
48805;SDS011;34625;47.176;27.548;2023-04-09T04:58:12;48.63;;;34.83;;
48805;SDS011;34625;47.176;27.548;2023-04-09T05:00:52;31.15;;;23.83;;
48805;SDS011;34625;47.176;27.548;2023-04-09T05:03:18;42.03;;;31.63;;
48805;SDS011;34625;47.176;27.548;2023-04-09T05:06:05;42.60;;;33.03;;
48805;SDS011;34625;47.176;27.548;2023-04-09T05:08:39;36.42;;;29.17;;
48805;SDS011;34625;47.176;27.548;2023-04-09T05:11:06;39.13;;;30.58;;
48805;SDS011;34625;47.176;27.548;2023-04-09T05:13:37;39.72;;;31.80;;
48805;SDS011;34625;47.176;27.548;2023-04-09T05:16:07;40.03;;;30.95;;
48805;SDS011;34625;47.176;27.548;2023-04-09T05:18:35;42.45;;;31.95;;
48805;SDS011;34625;47.176;27.548;2023-04-09T05:21:01;39.38;;;29.63;;
48805;SDS011;34625;47.176;27.548;2023-04-09T05:23:29;37.72;;;29.75;;
48805;SDS011;34625;47.176;27.548;2023-04-09T05:25:56;39.35;;;30.13;;
48805;SDS011;34625;47.176;27.548;2023-04-09T05:28:33;39.00;;;29.25;;
48805;SDS011;34625;47.176;27.548;2023-04-09T05:31:09;39.60;;;30.48;;
48805;SDS011;34625;47.176;27.548;2023-04-09T05:36:15;41.05;;;31.50;;
48805;SDS011;34625;47.176;27.548;2023-04-09T05:38:45;38.38;;;28.08;;
48805;SDS011;34625;47.176;27.548;2023-04-09T05:41:12;39.00;;;29.60;;
48805;SDS011;34625;47.176;27.548;2023-04-09T05:43:47;39.25;;;28.90;;
48805;SDS011;34625;47.176;27.548;2023-04-09T05:46:13;36.75;;;27.48;;
48805;SDS011;34625;47.176;27.548;2023-04-09T05:48:40;37.65;;;29.33;;
48805;SDS011;34625;47.176;27.548;2023-04-09T05:51:07;31.63;;;23.15;;
48805;SDS011;34625;47.176;27.548;2023-04-09T05:53:34;44.97;;;27.33;;
48805;SDS011;34625;47.176;27.548;2023-04-09T05:56:00;38.65;;;24.92;;
48805;SDS011;34625;47.176;27.548;2023-04-09T05:58:38;37.00;;;23.92;;
48805;SDS011;34625;47.176;27.548;2023-04-09T06:01:04;36.30;;;24.73;;
48805;SDS011;34625;47.176;27.548;2023-04-09T06:03:30;36.45;;;23.67;;
48805;SDS011;34625;47.176;27.548;2023-04-09T06:05:56;32.03;;;21.70;;
48805;SDS011;34625;47.176;27.548;2023-04-09T06:08:22;36.17;;;22.65;;
48805;SDS011;34625;47.176;27.548;2023-04-09T06:10:48;37.75;;;23.98;;
48805;SDS011;34625;47.176;27.548;2023-04-09T06:13:14;40.38;;;25.98;;
48805;SDS011;34625;47.176;27.548;2023-04-09T06:15:40;31.33;;;21.95;;
48805;SDS011;34625;47.176;27.548;2023-04-09T06:18:06;38.53;;;26.23;;
48805;SDS011;34625;47.176;27.548;2023-04-09T06:20:32;29.70;;;18.52;;
48805;SDS011;34625;47.176;27.548;2023-04-09T06:22:59;29.98;;;21.00;;
48805;SDS011;34625;47.176;27.548;2023-04-09T06:25:25;33.60;;;22.63;;
48805;SDS011;34625;47.176;27.548;2023-04-09T06:27:51;37.08;;;26.05;;
48805;SDS011;34625;47.176;27.548;2023-04-09T06:30:17;27.95;;;19.35;;
48805;SDS011;34625;47.176;27.548;2023-04-09T06:32:43;33.00;;;20.10;;
48805;SDS011;34625;47.176;27.548;2023-04-09T06:35:10;32.10;;;21.17;;
48805;SDS011;34625;47.176;27.548;2023-04-09T06:37:36;31.95;;;22.80;;
48805;SDS011;34625;47.176;27.548;2023-04-09T06:40:02;35.95;;;20.77;;
48805;SDS011;34625;47.176;27.548;2023-04-09T06:42:28;31.90;;;21.33;;
48805;SDS011;34625;47.176;27.548;2023-04-09T06:45:07;42.72;;;28.48;;
48805;SDS011;34625;47.176;27.548;2023-04-09T06:47:34;42.00;;;27.80;;
48805;SDS011;34625;47.176;27.548;2023-04-09T06:50:00;38.28;;;27.55;;
48805;SDS011;34625;47.176;27.548;2023-04-09T06:52:26;39.70;;;26.45;;
48805;SDS011;34625;47.176;27.548;2023-04-09T06:54:52;38.38;;;26.50;;
48805;SDS011;34625;47.176;27.548;2023-04-09T06:57:18;40.50;;;27.15;;
48805;SDS011;34625;47.176;27.548;2023-04-09T06:59:44;36.05;;;26.13;;
48805;SDS011;34625;47.176;27.548;2023-04-09T07:02:10;38.50;;;26.17;;
48805;SDS011;34625;47.176;27.548;2023-04-09T07:04:36;36.72;;;23.83;;
48805;SDS011;34625;47.176;27.548;2023-04-09T07:07:02;36.95;;;24.25;;
48805;SDS011;34625;47.176;27.548;2023-04-09T07:09:28;33.58;;;24.55;;
48805;SDS011;34625;47.176;27.548;2023-04-09T07:11:55;36.90;;;24.60;;
48805;SDS011;34625;47.176;27.548;2023-04-09T07:14:21;32.25;;;22.77;;
48805;SDS011;34625;47.176;27.548;2023-04-09T07:16:47;35.03;;;23.30;;
48805;SDS011;34625;47.176;27.548;2023-04-09T07:19:13;38.95;;;25.58;;
48805;SDS011;34625;47.176;27.548;2023-04-09T07:21:41;36.05;;;25.00;;
48805;SDS011;34625;47.176;27.548;2023-04-09T07:24:07;36.80;;;24.60;;
48805;SDS011;34625;47.176;27.548;2023-04-09T07:26:33;34.17;;;24.33;;
48805;SDS011;34625;47.176;27.548;2023-04-09T07:28:59;31.15;;;21.15;;
48805;SDS011;34625;47.176;27.548;2023-04-09T07:31:25;34.97;;;23.30;;
48805;SDS011;34625;47.176;27.548;2023-04-09T07:33:51;32.92;;;22.52;;
48805;SDS011;34625;47.176;27.548;2023-04-09T07:36:17;23.95;;;17.40;;
48805;SDS011;34625;47.176;27.548;2023-04-09T07:38:43;38.08;;;25.42;;
48805;SDS011;34625;47.176;27.548;2023-04-09T07:41:09;36.35;;;24.23;;
48805;SDS011;34625;47.176;27.548;2023-04-09T07:43:36;32.45;;;23.45;;
48805;SDS011;34625;47.176;27.548;2023-04-09T07:46:02;39.70;;;26.08;;
48805;SDS011;34625;47.176;27.548;2023-04-09T07:48:28;38.63;;;24.73;;
48805;SDS011;34625;47.176;27.548;2023-04-09T07:50:54;34.13;;;23.48;;
48805;SDS011;34625;47.176;27.548;2023-04-09T07:53:21;38.15;;;25.27;;
48805;SDS011;34625;47.176;27.548;2023-04-09T07:55:47;41.45;;;24.92;;
48805;SDS011;34625;47.176;27.548;2023-04-09T07:58:15;36.53;;;24.73;;
48805;SDS011;34625;47.176;27.548;2023-04-09T08:00:41;35.60;;;23.25;;
48805;SDS011;34625;47.176;27.548;2023-04-09T08:03:07;37.40;;;23.95;;
48805;SDS011;34625;47.176;27.548;2023-04-09T08:05:34;37.42;;;23.73;;
48805;SDS011;34625;47.176;27.548;2023-04-09T08:08:00;30.20;;;20.70;;
48805;SDS011;34625;47.176;27.548;2023-04-09T08:10:27;32.67;;;24.30;;
48805;SDS011;34625;47.176;27.548;2023-04-09T08:12:53;35.25;;;23.75;;
48805;SDS011;34625;47.176;27.548;2023-04-09T08:15:19;36.20;;;23.67;;
48805;SDS011;34625;47.176;27.548;2023-04-09T08:17:45;34.92;;;24.92;;
48805;SDS011;34625;47.176;27.548;2023-04-09T08:20:11;35.42;;;23.90;;
48805;SDS011;34625;47.176;27.548;2023-04-09T08:22:37;30.33;;;22.10;;
48805;SDS011;34625;47.176;27.548;2023-04-09T08:25:05;31.80;;;20.88;;
48805;SDS011;34625;47.176;27.548;2023-04-09T08:27:31;34.95;;;23.20;;
48805;SDS011;34625;47.176;27.548;2023-04-09T08:29:58;34.67;;;22.02;;
48805;SDS011;34625;47.176;27.548;2023-04-09T08:32:25;31.20;;;21.10;;
48805;SDS011;34625;47.176;27.548;2023-04-09T08:34:51;30.52;;;21.17;;
48805;SDS011;34625;47.176;27.548;2023-04-09T08:37:17;31.80;;;21.95;;
48805;SDS011;34625;47.176;27.548;2023-04-09T08:39:43;29.98;;;20.20;;
48805;SDS011;34625;47.176;27.548;2023-04-09T08:42:09;31.33;;;21.75;;
48805;SDS011;34625;47.176;27.548;2023-04-09T08:44:36;29.67;;;20.05;;
48805;SDS011;34625;47.176;27.548;2023-04-09T08:47:06;30.58;;;21.52;;
48805;SDS011;34625;47.176;27.548;2023-04-09T08:52:04;28.92;;;22.35;;
48805;SDS011;34625;47.176;27.548;2023-04-09T08:54:31;23.95;;;17.98;;
48805;SDS011;34625;47.176;27.548;2023-04-09T08:56:57;24.13;;;17.65;;
48805;SDS011;34625;47.176;27.548;2023-04-09T08:59:23;23.05;;;16.98;;
48805;SDS011;34625;47.176;27.548;2023-04-09T09:02:05;27.20;;;18.80;;
48805;SDS011;34625;47.176;27.548;2023-04-09T09:04:42;27.80;;;20.30;;
48805;SDS011;34625;47.176;27.548;2023-04-09T09:07:10;27.63;;;19.60;;
48805;SDS011;34625;47.176;27.548;2023-04-09T09:09:52;30.13;;;19.63;;
48805;SDS011;34625;47.176;27.548;2023-04-09T09:14:56;30.50;;;19.75;;
48805;SDS011;34625;47.176;27.548;2023-04-09T09:17:22;29.02;;;20.02;;
48805;SDS011;34625;47.176;27.548;2023-04-09T09:19:48;28.50;;;18.73;;
48805;SDS011;34625;47.176;27.548;2023-04-09T09:22:14;25.90;;;17.90;;
48805;SDS011;34625;47.176;27.548;2023-04-09T09:24:47;26.65;;;17.67;;
48805;SDS011;34625;47.176;27.548;2023-04-09T09:30:22;29.48;;;17.95;;
48805;SDS011;34625;47.176;27.548;2023-04-09T09:35:51;21.50;;;16.02;;
48805;SDS011;34625;47.176;27.548;2023-04-09T09:38:18;17.80;;;14.05;;
48805;SDS011;34625;47.176;27.548;2023-04-09T09:40:45;24.80;;;15.07;;
48805;SDS011;34625;47.176;27.548;2023-04-09T09:43:12;18.60;;;14.23;;
48805;SDS011;34625;47.176;27.548;2023-04-09T09:45:39;25.98;;;17.17;;
48805;SDS011;34625;47.176;27.548;2023-04-09T09:48:09;21.42;;;15.93;;
48805;SDS011;34625;47.176;27.548;2023-04-09T09:50:37;22.25;;;13.85;;
48805;SDS011;34625;47.176;27.548;2023-04-09T09:53:06;21.15;;;16.48;;
48805;SDS011;34625;47.176;27.548;2023-04-09T09:55:37;22.08;;;15.07;;
48805;SDS011;34625;47.176;27.548;2023-04-09T09:58:23;22.83;;;16.17;;
48805;SDS011;34625;47.176;27.548;2023-04-09T10:00:56;18.80;;;15.98;;
48805;SDS011;34625;47.176;27.548;2023-04-09T10:03:26;25.10;;;15.60;;
48805;SDS011;34625;47.176;27.548;2023-04-09T10:05:54;15.37;;;12.87;;
48805;SDS011;34625;47.176;27.548;2023-04-09T10:08:22;20.63;;;16.73;;
48805;SDS011;34625;47.176;27.548;2023-04-09T10:10:49;15.45;;;11.43;;
48805;SDS011;34625;47.176;27.548;2023-04-09T10:13:34;15.70;;;12.70;;
48805;SDS011;34625;47.176;27.548;2023-04-09T10:16:04;20.10;;;14.18;;
48805;SDS011;34625;47.176;27.548;2023-04-09T10:18:31;21.52;;;14.70;;
48805;SDS011;34625;47.176;27.548;2023-04-09T10:21:13;19.77;;;14.60;;
48805;SDS011;34625;47.176;27.548;2023-04-09T10:23:58;18.52;;;13.70;;
48805;SDS011;34625;47.176;27.548;2023-04-09T10:26:25;14.88;;;11.93;;
48805;SDS011;34625;47.176;27.548;2023-04-09T10:29:02;14.30;;;10.60;;
48805;SDS011;34625;47.176;27.548;2023-04-09T10:34:22;15.27;;;13.68;;
48805;SDS011;34625;47.176;27.548;2023-04-09T10:37:00;15.50;;;13.35;;
48805;SDS011;34625;47.176;27.548;2023-04-09T10:39:26;16.45;;;12.55;;
48805;SDS011;34625;47.176;27.548;2023-04-09T10:42:07;20.02;;;13.38;;
48805;SDS011;34625;47.176;27.548;2023-04-09T10:44:37;15.48;;;11.70;;
48805;SDS011;34625;47.176;27.548;2023-04-09T10:47:07;19.50;;;14.10;;
48805;SDS011;34625;47.176;27.548;2023-04-09T10:49:35;16.58;;;12.25;;
48805;SDS011;34625;47.176;27.548;2023-04-09T10:52:08;18.90;;;13.27;;
48805;SDS011;34625;47.176;27.548;2023-04-09T10:54:37;18.60;;;13.45;;
48805;SDS011;34625;47.176;27.548;2023-04-09T10:59:32;17.10;;;12.30;;
48805;SDS011;34625;47.176;27.548;2023-04-09T11:08:02;17.05;;;12.07;;
48805;SDS011;34625;47.176;27.548;2023-04-09T11:10:36;14.15;;;10.95;;
48805;SDS011;34625;47.176;27.548;2023-04-09T11:13:03;17.48;;;12.80;;
48805;SDS011;34625;47.176;27.548;2023-04-09T11:15:30;16.83;;;11.90;;
48805;SDS011;34625;47.176;27.548;2023-04-09T11:17:59;16.00;;;11.82;;
48805;SDS011;34625;47.176;27.548;2023-04-09T11:20:26;16.00;;;11.48;;
48805;SDS011;34625;47.176;27.548;2023-04-09T11:22:53;17.15;;;12.20;;
48805;SDS011;34625;47.176;27.548;2023-04-09T11:27:51;13.82;;;10.23;;
48805;SDS011;34625;47.176;27.548;2023-04-09T11:30:17;15.85;;;12.23;;
48805;SDS011;34625;47.176;27.548;2023-04-09T11:32:44;13.15;;;9.75;;
48805;SDS011;34625;47.176;27.548;2023-04-09T11:35:15;18.67;;;12.98;;
48805;SDS011;34625;47.176;27.548;2023-04-09T11:37:43;18.67;;;13.57;;
48805;SDS011;34625;47.176;27.548;2023-04-09T11:42:45;14.05;;;10.18;;
48805;SDS011;34625;47.176;27.548;2023-04-09T11:45:14;14.80;;;11.13;;
48805;SDS011;34625;47.176;27.548;2023-04-09T11:47:41;17.67;;;11.32;;
48805;SDS011;34625;47.176;27.548;2023-04-09T11:50:09;15.50;;;11.38;;
48805;SDS011;34625;47.176;27.548;2023-04-09T11:52:36;12.85;;;10.23;;
48805;SDS011;34625;47.176;27.548;2023-04-09T11:55:03;11.13;;;8.90;;
48805;SDS011;34625;47.176;27.548;2023-04-09T11:57:40;13.80;;;10.27;;
48805;SDS011;34625;47.176;27.548;2023-04-09T12:00:09;16.65;;;10.90;;
48805;SDS011;34625;47.176;27.548;2023-04-09T12:02:46;15.20;;;10.43;;
48805;SDS011;34625;47.176;27.548;2023-04-09T12:05:32;14.25;;;10.85;;
48805;SDS011;34625;47.176;27.548;2023-04-09T12:08:03;13.38;;;10.93;;
48805;SDS011;34625;47.176;27.548;2023-04-09T12:10:33;12.95;;;10.50;;
48805;SDS011;34625;47.176;27.548;2023-04-09T12:13:03;11.98;;;10.27;;
48805;SDS011;34625;47.176;27.548;2023-04-09T12:15:32;13.00;;;9.35;;
48805;SDS011;34625;47.176;27.548;2023-04-09T12:17:59;13.23;;;9.85;;
48805;SDS011;34625;47.176;27.548;2023-04-09T12:23:02;13.88;;;10.80;;
48805;SDS011;34625;47.176;27.548;2023-04-09T12:25:30;15.45;;;11.05;;
48805;SDS011;34625;47.176;27.548;2023-04-09T12:27:58;15.02;;;10.20;;
48805;SDS011;34625;47.176;27.548;2023-04-09T12:30:24;15.75;;;11.50;;
48805;SDS011;34625;47.176;27.548;2023-04-09T12:32:50;16.23;;;11.32;;
48805;SDS011;34625;47.176;27.548;2023-04-09T12:35:17;15.15;;;10.73;;
48805;SDS011;34625;47.176;27.548;2023-04-09T12:37:43;13.38;;;10.35;;
48805;SDS011;34625;47.176;27.548;2023-04-09T12:40:10;13.60;;;10.73;;
48805;SDS011;34625;47.176;27.548;2023-04-09T12:42:39;12.50;;;9.93;;
48805;SDS011;34625;47.176;27.548;2023-04-09T12:45:06;13.40;;;10.52;;
48805;SDS011;34625;47.176;27.548;2023-04-09T12:47:33;13.38;;;10.38;;
48805;SDS011;34625;47.176;27.548;2023-04-09T12:50:00;12.75;;;10.35;;
48805;SDS011;34625;47.176;27.548;2023-04-09T12:52:26;13.35;;;10.05;;
48805;SDS011;34625;47.176;27.548;2023-04-09T12:54:52;13.50;;;10.23;;
48805;SDS011;34625;47.176;27.548;2023-04-09T12:57:18;10.65;;;8.45;;
48805;SDS011;34625;47.176;27.548;2023-04-09T12:59:44;9.98;;;8.00;;
48805;SDS011;34625;47.176;27.548;2023-04-09T13:02:10;14.77;;;10.57;;
48805;SDS011;34625;47.176;27.548;2023-04-09T13:04:36;10.80;;;8.52;;
48805;SDS011;34625;47.176;27.548;2023-04-09T13:07:02;11.45;;;8.82;;
48805;SDS011;34625;47.176;27.548;2023-04-09T13:09:28;13.82;;;9.90;;
48805;SDS011;34625;47.176;27.548;2023-04-09T13:11:54;10.55;;;8.50;;
48805;SDS011;34625;47.176;27.548;2023-04-09T13:14:20;16.05;;;9.88;;
48805;SDS011;34625;47.176;27.548;2023-04-09T13:16:46;12.80;;;9.45;;
48805;SDS011;34625;47.176;27.548;2023-04-09T13:19:12;13.55;;;10.43;;
48805;SDS011;34625;47.176;27.548;2023-04-09T13:21:38;13.10;;;10.30;;
48805;SDS011;34625;47.176;27.548;2023-04-09T13:24:04;11.50;;;9.18;;
48805;SDS011;34625;47.176;27.548;2023-04-09T13:26:31;16.30;;;11.30;;
48805;SDS011;34625;47.176;27.548;2023-04-09T13:28:57;13.10;;;10.10;;
48805;SDS011;34625;47.176;27.548;2023-04-09T13:31:23;11.98;;;10.32;;
48805;SDS011;34625;47.176;27.548;2023-04-09T13:33:49;15.02;;;11.63;;
48805;SDS011;34625;47.176;27.548;2023-04-09T13:36:15;12.63;;;10.75;;
48805;SDS011;34625;47.176;27.548;2023-04-09T13:38:41;17.85;;;10.70;;
48805;SDS011;34625;47.176;27.548;2023-04-09T13:41:07;12.88;;;10.55;;
48805;SDS011;34625;47.176;27.548;2023-04-09T13:43:33;14.38;;;10.55;;
48805;SDS011;34625;47.176;27.548;2023-04-09T13:45:59;12.55;;;9.68;;
48805;SDS011;34625;47.176;27.548;2023-04-09T13:48:25;13.40;;;9.82;;
48805;SDS011;34625;47.176;27.548;2023-04-09T13:50:51;13.60;;;10.00;;
48805;SDS011;34625;47.176;27.548;2023-04-09T13:53:18;14.80;;;11.48;;
48805;SDS011;34625;47.176;27.548;2023-04-09T13:55:45;16.77;;;11.30;;
48805;SDS011;34625;47.176;27.548;2023-04-09T13:58:11;14.80;;;10.70;;
48805;SDS011;34625;47.176;27.548;2023-04-09T14:00:37;12.48;;;9.55;;
48805;SDS011;34625;47.176;27.548;2023-04-09T14:03:03;12.05;;;8.95;;
48805;SDS011;34625;47.176;27.548;2023-04-09T14:05:29;15.50;;;10.52;;
48805;SDS011;34625;47.176;27.548;2023-04-09T14:07:57;16.73;;;10.70;;
48805;SDS011;34625;47.176;27.548;2023-04-09T14:10:23;14.50;;;11.13;;
48805;SDS011;34625;47.176;27.548;2023-04-09T14:12:49;13.85;;;10.77;;
48805;SDS011;34625;47.176;27.548;2023-04-09T14:15:16;10.93;;;9.52;;
48805;SDS011;34625;47.176;27.548;2023-04-09T14:17:42;16.73;;;11.75;;
48805;SDS011;34625;47.176;27.548;2023-04-09T14:20:08;13.75;;;9.90;;
48805;SDS011;34625;47.176;27.548;2023-04-09T14:22:34;11.75;;;9.95;;
48805;SDS011;34625;47.176;27.548;2023-04-09T14:25:00;15.27;;;10.40;;
48805;SDS011;34625;47.176;27.548;2023-04-09T14:27:27;10.20;;;7.97;;
48805;SDS011;34625;47.176;27.548;2023-04-09T14:29:53;10.05;;;6.13;;
48805;SDS011;34625;47.176;27.548;2023-04-09T14:32:19;7.60;;;4.70;;
48805;SDS011;34625;47.176;27.548;2023-04-09T14:34:45;6.35;;;3.78;;
48805;SDS011;34625;47.176;27.548;2023-04-09T14:37:11;6.43;;;2.80;;
48805;SDS011;34625;47.176;27.548;2023-04-09T14:39:37;11.45;;;7.93;;
48805;SDS011;34625;47.176;27.548;2023-04-09T14:42:02;13.25;;;9.07;;
48805;SDS011;34625;47.176;27.548;2023-04-09T14:44:28;12.35;;;9.55;;
48805;SDS011;34625;47.176;27.548;2023-04-09T14:46:56;13.32;;;10.55;;
48805;SDS011;34625;47.176;27.548;2023-04-09T14:49:24;10.90;;;8.50;;
48805;SDS011;34625;47.176;27.548;2023-04-09T14:51:50;13.18;;;9.85;;
48805;SDS011;34625;47.176;27.548;2023-04-09T14:54:16;13.55;;;10.23;;
48805;SDS011;34625;47.176;27.548;2023-04-09T14:56:42;14.43;;;10.82;;
48805;SDS011;34625;47.176;27.548;2023-04-09T14:59:08;12.57;;;10.15;;
48805;SDS011;34625;47.176;27.548;2023-04-09T15:01:34;12.73;;;9.60;;
48805;SDS011;34625;47.176;27.548;2023-04-09T15:04:00;15.93;;;11.02;;